createdAt,value
2019-05-03T00:02:12.291Z,100293.20
2019-05-03T00:04:42.320Z,100296.75
2019-05-03T00:07:11.821Z,100292.86
2019-05-03T00:09:42.633Z,100297.55
2019-05-03T00:12:12.641Z,100291.27
2019-05-03T00:14:43.152Z,100282.83
2019-05-03T00:17:12.569Z,100279.55
2019-05-03T00:19:42.233Z,100287.05
2019-05-03T00:22:12.386Z,100289.41
2019-05-03T00:24:42.697Z,100286.46
2019-05-03T00:27:12.498Z,100282.91
2019-05-03T00:29:41.908Z,100285.87
2019-05-03T00:32:12.501Z,100291.77
2019-05-03T00:34:48.934Z,100293.84
2019-05-03T00:37:22.214Z,100289.28
2019-05-03T00:39:52.653Z,100298.17
2019-05-03T00:42:22.511Z,100292.66
2019-05-03T00:44:51.730Z,100292.81
2019-05-03T00:47:22.214Z,100290.88
2019-05-03T00:49:51.866Z,100285.23
2019-05-03T00:52:22.385Z,100289.81
2019-05-03T00:54:52.859Z,100292.64
2019-05-03T00:57:22.755Z,100284.20
2019-05-03T00:59:52.849Z,100280.41
2019-05-03T01:02:22.325Z,100282.27
2019-05-03T01:04:51.791Z,100280.19
2019-05-03T01:07:22.274Z,100280.10
2019-05-03T01:09:51.768Z,100285.41
2019-05-03T01:12:21.936Z,100284.52
2019-05-03T01:14:52.595Z,100286.03
2019-05-03T01:17:22.425Z,100288.60
2019-05-03T01:19:52.148Z,100299.89
2019-05-03T01:22:22.596Z,100288.03
2019-05-03T01:24:51.953Z,100291.58
2019-05-03T01:27:21.983Z,100293.55
2019-05-03T01:29:51.924Z,100294.30
2019-05-03T01:32:22.242Z,100292.70
2019-05-03T01:34:52.326Z,100289.41
2019-05-03T01:37:22.692Z,100293.08
2019-05-03T01:39:52.579Z,100305.34
2019-05-03T01:42:22.596Z,100299.13
2019-05-03T01:44:52.246Z,100296.31
2019-05-03T01:47:22.731Z,100300.59
2019-05-03T01:49:53.063Z,100306.73
2019-05-03T01:52:23.463Z,100301.34
2019-05-03T01:54:52.305Z,100294.77
2019-05-03T01:57:22.067Z,100295.61
2019-05-03T01:59:52.064Z,100297.58
2019-05-03T02:02:28.301Z,100291.22
2019-05-03T02:05:15.189Z,100295.76
2019-05-03T02:07:43.976Z,100298.83
2019-05-03T02:10:14.410Z,100300.80
2019-05-03T02:12:43.091Z,100301.89
2019-05-03T02:15:12.512Z,100305.44
2019-05-03T02:17:42.715Z,100302.02
2019-05-03T02:20:12.590Z,100300.55
2019-05-03T02:22:42.805Z,100305.34
2019-05-03T02:25:12.529Z,100296.80
2019-05-03T02:27:42.197Z,100301.69
2019-05-03T02:30:14.203Z,100304.16
2019-05-03T02:32:44.154Z,100299.62
2019-05-03T02:35:14.761Z,100307.08
2019-05-03T02:37:45.507Z,100303.78
2019-05-03T02:40:14.626Z,100304.28
2019-05-03T02:42:46.341Z,100306.84
2019-05-03T02:45:25.730Z,100304.77
2019-05-03T02:47:55.558Z,100310.28
2019-05-03T02:50:26.026Z,100302.55
2019-05-03T02:52:55.327Z,100303.67
2019-05-03T02:55:25.997Z,100307.10
2019-05-03T02:57:56.236Z,100316.03
2019-05-03T03:00:45.424Z,100323.27
2019-05-03T03:03:16.015Z,100320.58
2019-05-03T03:05:46.406Z,100310.42
2019-05-03T03:08:18.225Z,100312.73
2019-05-03T03:10:47.541Z,100308.34
2019-05-03T03:13:17.708Z,100314.37
2019-05-03T03:15:47.749Z,100325.14
2019-05-03T03:18:16.873Z,100325.26
2019-05-03T03:20:48.008Z,100329.69
2019-05-03T03:23:18.854Z,100331.38
2019-05-03T03:25:50.291Z,100326.73
2019-05-03T03:28:21.659Z,100326.26
2019-05-03T03:31:21.079Z,100326.38
2019-05-03T03:33:49.672Z,100335.81
2019-05-03T03:36:50.288Z,100336.55
2019-05-03T03:38:48.596Z,100344.97
2019-05-03T03:41:17.975Z,100345.47
2019-05-03T03:43:48.322Z,100347.81
2019-05-03T03:46:18.004Z,100344.63
2019-05-03T03:48:47.312Z,100340.47
2019-05-03T03:51:17.519Z,100345.23
2019-05-03T03:53:48.082Z,100354.78
2019-05-03T03:56:18.575Z,100359.44
2019-05-03T03:58:48.970Z,100355.90
2019-05-03T04:01:18.096Z,100353.33
2019-05-03T04:03:46.997Z,100356.52
2019-05-03T04:06:17.183Z,100357.86
2019-05-03T04:08:45.885Z,100369.36
2019-05-03T04:11:15.563Z,100374.02
2019-05-03T04:13:45.858Z,100371.67
2019-05-03T04:16:32.609Z,100379.75
2019-05-03T04:19:17.386Z,100378.05
2019-05-03T04:21:45.709Z,100384.17
2019-05-03T04:24:16.331Z,100380.86
2019-05-03T04:26:45.450Z,100387.95
2019-05-03T04:29:16.083Z,100397.64
2019-05-03T04:31:45.792Z,100403.14
2019-05-03T04:34:16.232Z,100398.48
2019-05-03T04:36:46.158Z,100413.53
2019-05-03T04:39:19.657Z,100406.67
2019-05-03T04:41:45.558Z,100409.98
2019-05-03T04:44:15.499Z,100408.02
2019-05-03T04:46:46.543Z,100414.88
2019-05-03T04:49:15.193Z,100417.67
2019-05-03T04:51:46.494Z,100412.55
2019-05-03T04:54:25.521Z,100417.67
2019-05-03T04:56:56.143Z,100416.59
2019-05-03T04:59:25.408Z,100422.70
2019-05-03T05:01:56.008Z,100429.20
2019-05-03T05:04:25.432Z,100434.70
2019-05-03T05:06:55.477Z,100429.08
2019-05-03T05:09:25.840Z,100437.50
2019-05-03T05:11:54.968Z,100438.48
2019-05-03T05:14:25.880Z,100441.52
2019-05-03T05:16:55.682Z,100447.40
2019-05-03T05:19:29.343Z,100450.58
2019-05-03T05:22:03.949Z,100446.27
2019-05-03T05:24:34.651Z,100443.55
2019-05-03T05:27:14.699Z,100445.00
2019-05-03T05:29:45.071Z,100443.64
2019-05-03T05:32:14.488Z,100450.14
2019-05-03T05:34:43.326Z,100453.44
2019-05-03T05:37:12.022Z,100459.16
2019-05-03T05:39:40.689Z,100454.84
2019-05-03T05:42:09.374Z,100455.33
2019-05-03T05:44:38.069Z,100460.83
2019-05-03T05:47:14.962Z,100467.77
2019-05-03T05:49:45.473Z,100462.56
2019-05-03T05:52:15.483Z,100467.34
2019-05-03T05:54:45.923Z,100464.39
2019-05-03T05:57:28.572Z,100467.56
2019-05-03T05:59:58.882Z,100468.00
2019-05-03T06:02:27.622Z,100472.27
2019-05-03T06:04:56.372Z,100473.21
2019-05-03T06:07:39.024Z,100476.00
2019-05-03T06:10:10.282Z,100474.20
2019-05-03T06:12:49.843Z,100470.24
2019-05-03T06:15:38.706Z,100478.44
2019-05-03T06:18:09.043Z,100477.59
2019-05-03T06:20:55.475Z,100485.03
2019-05-03T06:23:31.891Z,100485.78
2019-05-03T06:26:00.761Z,100484.00
2019-05-03T06:28:35.253Z,100487.30
2019-05-03T06:33:45.294Z,100485.50
2019-05-03T06:36:15.286Z,100493.56
2019-05-03T06:38:44.757Z,100484.11
2019-05-03T06:41:15.083Z,100497.80
2019-05-03T06:43:47.157Z,100493.83
2019-05-03T06:46:17.749Z,100492.98
2019-05-03T06:48:44.830Z,100484.22
2019-05-03T06:51:17.870Z,100485.59
2019-05-03T06:53:48.988Z,100490.45
2019-05-03T06:56:14.822Z,100484.27
2019-05-03T06:58:44.896Z,100483.33
2019-05-03T07:01:21.343Z,100490.36
2019-05-03T07:03:57.435Z,100483.20
2019-05-03T07:06:40.149Z,100489.23
2019-05-03T07:09:16.075Z,100490.63
2019-05-03T07:11:45.171Z,100502.22
2019-05-03T07:14:15.566Z,100496.01
2019-05-03T07:16:44.473Z,100486.37
2019-05-03T07:19:14.760Z,100497.89
2019-05-03T07:21:44.676Z,100498.36
2019-05-03T07:24:14.655Z,100498.36
2019-05-03T07:26:44.833Z,100499.07
2019-05-03T07:29:15.256Z,100502.31
2019-05-03T07:31:44.738Z,100490.98
2019-05-03T07:34:15.423Z,100493.46
2019-05-03T07:36:46.664Z,100498.34
2019-05-03T07:39:15.352Z,100508.97
2019-05-03T07:41:44.640Z,100506.50
2019-05-03T07:44:15.204Z,100500.55
2019-05-03T07:46:45.186Z,100501.13
2019-05-03T07:49:15.356Z,100500.89
2019-05-03T07:51:44.874Z,100494.16
2019-05-03T07:54:15.541Z,100489.23
2019-05-03T07:56:48.460Z,100487.21
2019-05-03T07:59:17.164Z,100483.31
2019-05-03T08:01:47.475Z,100480.54
2019-05-03T08:04:16.210Z,100490.27
2019-05-03T08:06:44.899Z,100486.07
2019-05-03T08:09:15.289Z,100486.59
2019-05-03T08:11:44.458Z,100493.64
2019-05-03T08:14:16.063Z,100494.08
2019-05-03T08:16:45.568Z,100502.23
2019-05-03T08:19:15.184Z,100495.59
2019-05-03T08:21:45.331Z,100494.20
2019-05-03T08:24:14.916Z,100498.11
2019-05-03T08:26:45.285Z,100500.63
2019-05-03T08:29:18.635Z,100492.97
2019-05-03T08:32:05.111Z,100502.51
2019-05-03T08:34:41.839Z,100503.55
2019-05-03T08:37:15.360Z,100500.60
2019-05-03T08:39:44.771Z,100503.08
2019-05-03T08:42:18.071Z,100507.84
2019-05-03T08:44:46.758Z,100507.91
2019-05-03T08:47:15.630Z,100503.57
2019-05-03T08:49:44.999Z,100505.34
2019-05-03T08:52:15.696Z,100513.38
2019-05-03T08:54:44.997Z,100502.31
2019-05-03T08:57:14.941Z,100500.05
2019-05-03T08:59:44.600Z,100502.83
2019-05-03T09:02:16.541Z,100508.58
2019-05-03T09:04:45.921Z,100509.04
2019-05-03T09:07:14.907Z,100506.36
2019-05-03T09:09:55.054Z,100506.68
2019-05-03T09:12:25.204Z,100499.48
2019-05-03T09:14:54.623Z,100502.23
2019-05-03T09:17:24.669Z,100497.01
2019-05-03T09:19:54.797Z,100501.25
2019-05-03T09:22:25.564Z,100510.05
2019-05-03T09:24:54.700Z,100506.66
2019-05-03T09:27:25.432Z,100505.54
2019-05-03T09:29:55.832Z,100499.19
2019-05-03T09:32:25.644Z,100505.21
2019-05-03T09:34:55.155Z,100506.17
2019-05-03T09:37:25.033Z,100506.84
2019-05-03T09:39:55.197Z,100512.27
2019-05-03T09:42:24.822Z,100518.70
2019-05-03T09:44:55.467Z,100531.80
2019-05-03T09:47:25.244Z,100533.48
2019-05-03T09:49:55.860Z,100528.91
2019-05-03T09:52:25.178Z,100531.27
2019-05-03T09:54:55.500Z,100531.44
2019-05-03T09:57:24.761Z,100520.69
2019-05-03T09:59:59.187Z,100517.61
2019-05-03T10:02:24.631Z,100516.92
2019-05-03T10:04:55.419Z,100519.45
2019-05-03T10:07:25.780Z,100520.48
2019-05-03T10:09:55.217Z,100507.94
2019-05-03T10:12:25.670Z,100504.01
2019-05-03T10:14:54.933Z,100505.85
2019-05-03T10:17:35.107Z,100510.00
2019-05-03T10:20:08.486Z,100494.67
2019-05-03T10:22:37.234Z,100499.45
2019-05-03T10:25:07.548Z,100502.19
2019-05-03T10:27:37.943Z,100503.23
2019-05-03T10:30:12.461Z,100503.88
2019-05-03T10:32:39.340Z,100505.45
2019-05-03T10:35:09.727Z,100502.76
2019-05-03T10:37:38.390Z,100511.42
2019-05-03T10:40:08.275Z,100508.66
2019-05-03T10:42:37.058Z,100519.87
2019-05-03T10:45:07.087Z,100512.95
2019-05-03T10:47:35.839Z,100514.58
2019-05-03T10:50:07.805Z,100515.00
2019-05-03T10:52:44.829Z,100512.89
2019-05-03T10:55:15.730Z,100516.50
2019-05-03T10:57:45.730Z,100507.81
2019-05-03T11:00:41.733Z,100513.81
2019-05-03T11:02:57.588Z,100506.41
2019-05-03T11:05:26.325Z,100499.76
2019-05-03T11:07:55.624Z,100497.03
2019-05-03T11:10:25.305Z,100494.03
2019-05-03T11:12:54.830Z,100491.30
2019-05-03T11:15:25.866Z,100486.03
2019-05-03T11:17:54.876Z,100483.48
2019-05-03T11:20:37.281Z,100487.50
2019-05-03T11:23:07.375Z,100474.97
2019-05-03T11:25:36.917Z,100466.25
2019-05-03T11:28:17.468Z,100473.23
2019-05-03T11:30:53.562Z,100472.11
2019-05-03T11:33:35.231Z,100465.02
2019-05-03T11:36:20.781Z,100475.70
2019-05-03T11:38:49.553Z,100467.39
2019-05-03T11:41:29.366Z,100479.56
2019-05-03T11:43:48.739Z,100477.50
2019-05-03T11:46:17.468Z,100478.31
2019-05-03T11:48:46.239Z,100486.78
2019-05-03T11:51:15.272Z,100488.78
2019-05-03T11:53:45.008Z,100491.64
2019-05-03T11:56:14.842Z,100480.18
2019-05-03T11:58:45.675Z,100479.46
2019-05-03T12:01:19.654Z,100489.67
2019-05-03T12:03:47.942Z,100481.80
2019-05-03T12:06:16.669Z,100489.41
2019-05-03T12:08:45.425Z,100483.22
2019-05-03T12:11:15.087Z,100490.55
2019-05-03T12:13:45.672Z,100488.64
2019-05-03T12:16:22.129Z,100496.34
2019-05-03T12:18:53.008Z,100496.34
2019-05-03T12:21:18.057Z,100498.84
2019-05-03T12:23:47.015Z,100502.51
2019-05-03T12:26:17.316Z,100503.84
2019-05-03T12:28:46.707Z,100507.75
2019-05-03T12:31:29.639Z,100502.95
2019-05-03T12:33:46.200Z,100497.86
2019-05-03T12:36:15.491Z,100490.73
2019-05-03T12:38:47.386Z,100493.14
2019-05-03T12:41:16.093Z,100497.91
2019-05-03T12:43:47.760Z,100485.75
2019-05-03T12:46:16.954Z,100473.29
2019-05-03T12:48:45.677Z,100483.88
2019-05-03T12:51:15.177Z,100477.92
2019-05-03T12:53:44.465Z,100474.13
2019-05-03T12:56:16.167Z,100487.44
2019-05-03T12:59:00.400Z,100487.25
2019-05-03T13:01:41.566Z,100479.60
2019-05-03T13:04:11.766Z,100478.31
2019-05-03T13:06:42.113Z,100472.38
2019-05-03T13:09:11.142Z,100472.55
2019-05-03T13:11:52.990Z,100477.37
2019-05-03T13:14:12.133Z,100471.93
2019-05-03T13:16:40.880Z,100480.14
2019-05-03T13:19:09.568Z,100466.46
2019-05-03T13:21:38.256Z,100470.12
2019-05-03T13:24:06.906Z,100460.48
2019-05-03T13:26:35.694Z,100452.98
2019-05-03T13:29:05.875Z,100449.61
2019-05-03T13:31:34.912Z,100446.33
2019-05-03T13:34:05.539Z,100447.94
2019-05-03T13:36:34.871Z,100435.67
2019-05-03T13:39:13.272Z,100439.62
2019-05-03T13:41:36.038Z,100439.62
2019-05-03T13:44:05.257Z,100435.91
2019-05-03T13:46:35.281Z,100439.12
2019-05-03T13:49:05.404Z,100440.49
2019-05-03T13:51:38.165Z,100437.98
2019-05-03T13:54:09.986Z,100438.65
2019-05-03T13:56:40.154Z,100429.14
2019-05-03T13:59:18.926Z,100442.41
2019-05-03T14:01:39.299Z,100431.02
2019-05-03T14:04:08.054Z,100431.02
2019-05-03T14:06:38.218Z,100441.77
2019-05-03T14:09:12.039Z,100446.61
2019-05-03T14:11:44.664Z,100441.48
2019-05-03T14:14:15.206Z,100438.63
2019-05-03T14:16:45.152Z,100443.60
2019-05-03T14:19:15.680Z,100439.91
2019-05-03T14:21:48.895Z,100439.97
2019-05-03T14:24:17.559Z,100425.84
2019-05-03T14:26:46.318Z,100430.55
2019-05-03T14:29:15.198Z,100425.20
2019-05-03T14:31:45.427Z,100428.41
2019-05-03T14:34:17.036Z,100426.09
2019-05-03T14:36:45.035Z,100419.45
2019-05-03T14:39:15.013Z,100417.89
2019-05-03T14:41:46.494Z,100419.91
2019-05-03T14:44:17.851Z,100419.06
2019-05-03T14:46:45.840Z,100409.84
2019-05-03T14:49:14.944Z,100413.23
2019-05-03T14:51:45.594Z,100399.07
2019-05-03T14:54:14.639Z,100396.41
2019-05-03T14:56:56.176Z,100399.67
2019-05-03T14:59:42.631Z,100393.84
2019-05-03T15:05:05.360Z,100384.74
2019-05-03T15:07:35.158Z,100375.41
2019-05-03T15:10:05.755Z,100380.64
2019-05-03T15:12:35.969Z,100375.80
2019-05-03T15:15:07.560Z,100373.06
2019-05-03T15:17:36.246Z,100369.63
2019-05-03T15:20:07.856Z,100368.72
2019-05-03T15:22:36.568Z,100363.75
2019-05-03T15:25:06.646Z,100368.64
2019-05-03T15:27:35.502Z,100355.31
2019-05-03T15:30:05.904Z,100357.59
2019-05-03T15:32:35.366Z,100366.70
2019-05-03T15:35:06.537Z,100371.89
2019-05-03T15:37:36.499Z,100354.34
2019-05-03T15:40:08.658Z,100355.59
2019-05-03T15:42:38.951Z,100352.34
2019-05-03T15:45:25.763Z,100348.45
2019-05-03T15:48:15.264Z,100347.08
2019-05-03T15:50:44.679Z,100347.25
2019-05-03T15:53:15.142Z,100351.03
2019-05-03T15:55:43.953Z,100344.24
2019-05-03T15:58:12.608Z,100351.56
2019-05-03T16:00:41.394Z,100353.28
2019-05-03T16:03:11.238Z,100359.08
2019-05-03T16:05:40.098Z,100357.56
2019-05-03T16:08:10.215Z,100351.41
2019-05-03T16:10:38.911Z,100357.91
2019-05-03T16:13:07.755Z,100353.62
2019-05-03T16:15:36.459Z,100359.08
2019-05-03T16:18:08.419Z,100350.06
2019-05-03T16:20:39.397Z,100344.27
2019-05-03T16:23:08.439Z,100356.16
2019-05-03T16:25:38.145Z,100344.27
2019-05-03T16:28:11.161Z,100356.31
2019-05-03T16:30:41.712Z,100354.22
2019-05-03T16:33:25.593Z,100352.32
2019-05-03T16:35:40.854Z,100356.41
2019-05-03T16:38:09.537Z,100348.19
2019-05-03T16:40:39.246Z,100338.98
2019-05-03T16:43:07.970Z,100339.34
2019-05-03T16:45:36.739Z,100331.82
2019-05-03T16:48:05.441Z,100334.06
2019-05-03T16:50:34.595Z,100334.06
2019-05-03T16:53:05.425Z,100330.14
2019-05-03T16:55:35.164Z,100329.30
2019-05-03T16:58:04.072Z,100325.90
2019-05-03T17:00:32.758Z,100325.70
2019-05-03T17:03:01.424Z,100324.02
2019-05-03T17:05:37.917Z,100336.58
2019-05-03T17:08:14.668Z,100324.86
2019-05-03T17:10:45.731Z,100321.95
2019-05-03T17:13:15.883Z,100318.19
2019-05-03T17:15:44.789Z,100315.44
2019-05-03T17:18:14.723Z,100313.18
2019-05-03T17:20:45.335Z,100315.03
2019-05-03T17:23:15.455Z,100314.79
2019-05-03T17:25:44.590Z,100312.90
2019-05-03T17:28:13.296Z,100307.75
2019-05-03T17:30:42.004Z,100309.98
2019-05-03T17:33:10.669Z,100319.29
2019-05-03T17:35:39.380Z,100317.76
2019-05-03T17:38:08.110Z,100318.58
2019-05-03T17:40:41.201Z,100320.09
2019-05-03T17:43:17.514Z,100319.20
2019-05-03T17:45:50.707Z,100318.13
2019-05-03T17:48:19.433Z,100328.98
2019-05-03T17:50:48.154Z,100330.77
2019-05-03T17:56:06.677Z,100330.83
2019-05-03T17:58:44.353Z,100322.63
2019-05-03T18:01:23.766Z,100331.91
2019-05-03T18:04:05.725Z,100330.98
2019-05-03T18:06:26.276Z,100325.56
2019-05-03T18:08:56.821Z,100329.45
2019-05-03T18:11:27.131Z,100324.64
2019-05-03T18:13:55.904Z,100322.41
2019-05-03T18:16:24.646Z,100321.82
2019-05-03T18:18:54.739Z,100321.73
2019-05-03T18:21:24.493Z,100326.61
2019-05-03T18:23:54.513Z,100335.36
2019-05-03T18:26:24.952Z,100331.91
2019-05-03T18:28:55.337Z,100326.53
2019-05-03T18:31:25.069Z,100331.59
2019-05-03T18:33:54.787Z,100325.06
2019-05-03T18:36:25.240Z,100321.82
2019-05-03T18:38:55.212Z,100318.05
2019-05-03T18:41:25.511Z,100323.61
2019-05-03T18:43:58.981Z,100315.72
2019-05-03T18:46:29.312Z,100320.09
2019-05-03T18:48:58.202Z,100321.23
2019-05-03T18:51:26.945Z,100327.20
2019-05-03T18:53:57.410Z,100331.20
2019-05-03T18:56:26.143Z,100329.85
2019-05-03T18:58:54.913Z,100329.66
2019-05-03T19:01:25.290Z,100332.14
2019-05-03T19:03:55.874Z,100337.92
2019-05-03T19:06:24.614Z,100335.95
2019-05-03T19:09:11.161Z,100342.34
2019-05-03T19:11:44.565Z,100349.91
2019-05-03T19:14:17.639Z,100354.87
2019-05-03T19:16:57.154Z,100299.50
2019-05-03T19:19:30.245Z,100367.85
2019-05-03T19:21:58.977Z,100359.74
2019-05-03T19:24:27.674Z,100366.86
2019-05-03T19:26:56.341Z,100372.47
2019-05-03T19:29:25.134Z,100362.56
2019-05-03T19:31:55.246Z,100355.64
2019-05-03T19:34:26.854Z,100364.45
2019-05-03T19:36:54.903Z,100353.50
2019-05-03T19:39:25.242Z,100352.41
2019-05-03T19:41:55.312Z,100345.31
2019-05-03T19:44:24.187Z,100345.08
2019-05-03T19:46:53.003Z,100330.78
2019-05-03T19:49:21.737Z,100322.84
2019-05-03T19:51:50.495Z,100326.66
2019-05-03T19:54:22.255Z,100328.31
2019-05-03T19:56:50.946Z,100326.01
2019-05-03T19:59:37.685Z,100329.22
2019-05-03T20:02:11.016Z,100327.16
2019-05-03T20:04:41.303Z,100328.64
2019-05-03T20:07:20.931Z,100326.78
2019-05-03T20:09:49.675Z,100320.19
2019-05-03T20:12:18.838Z,100313.91
2019-05-03T20:14:49.507Z,100321.67
2019-05-03T20:17:18.003Z,100317.38
2019-05-03T20:19:46.667Z,100318.39
2019-05-03T20:22:15.378Z,100316.80
2019-05-03T20:24:44.726Z,100316.59
2019-05-03T20:27:15.111Z,100319.30
2019-05-03T20:29:46.129Z,100317.16
2019-05-03T20:32:15.897Z,100318.94
2019-05-03T20:34:44.769Z,100318.83
2019-05-03T20:37:14.689Z,100320.34
2019-05-03T20:39:43.492Z,100318.20
2019-05-03T20:42:15.359Z,100308.68
2019-05-03T20:44:45.761Z,100305.13
2019-05-03T20:47:21.787Z,100302.44
2019-05-03T20:50:08.284Z,100302.94
2019-05-03T20:52:37.241Z,100297.10
2019-05-03T20:55:06.036Z,100300.81
2019-05-03T20:57:35.275Z,100302.80
2019-05-03T21:00:06.560Z,100299.47
2019-05-03T21:02:35.252Z,100294.70
2019-05-03T21:05:09.156Z,100306.86
2019-05-03T21:07:37.943Z,100297.33
2019-05-03T21:10:08.011Z,100301.44
2019-05-03T21:12:36.762Z,100300.98
2019-05-03T21:15:08.606Z,100296.98
2019-05-03T21:17:47.786Z,100302.02
2019-05-03T21:20:26.968Z,100300.25
2019-05-03T21:22:55.732Z,100303.72
2019-05-03T21:25:36.548Z,100298.82
2019-05-03T21:28:05.492Z,100294.10
2019-05-03T21:30:35.210Z,100298.28
2019-05-03T21:33:05.449Z,100301.63
2019-05-03T21:35:41.437Z,100301.63
2019-05-03T21:38:04.680Z,100291.66
2019-05-03T21:40:34.903Z,100293.47
2019-05-03T21:43:04.859Z,100296.80
2019-05-03T21:45:45.322Z,100299.98
2019-05-03T21:48:15.811Z,100302.34
2019-05-03T21:50:44.730Z,100300.66
2019-05-03T21:53:14.726Z,100298.13
2019-05-03T21:55:45.688Z,100292.77
2019-05-03T21:58:16.391Z,100284.22
2019-05-03T22:00:47.962Z,100288.31
2019-05-03T22:03:16.654Z,100288.86
2019-05-03T22:05:54.501Z,100290.12
2019-05-03T22:08:16.184Z,100286.16
2019-05-03T22:10:45.129Z,100287.30
2019-05-03T22:13:15.396Z,100288.97
2019-05-03T22:15:51.588Z,100282.48
2019-05-03T22:18:24.907Z,100279.47
2019-05-03T22:21:01.048Z,100286.97
2019-05-03T22:23:31.363Z,100282.33
2019-05-03T22:26:02.559Z,100280.08
2019-05-03T22:28:31.322Z,100278.16
2019-05-03T22:31:00.054Z,100279.94
2019-05-03T22:33:29.174Z,100275.64
2019-05-03T22:36:08.235Z,100268.68
2019-05-03T22:38:28.532Z,100267.46
2019-05-03T22:40:58.719Z,100264.66
2019-05-03T22:43:27.490Z,100263.97
2019-05-03T22:45:58.288Z,100264.21
2019-05-03T22:48:27.014Z,100261.04
2019-05-03T22:50:56.036Z,100256.62
2019-05-03T22:53:25.441Z,100259.57
2019-05-03T22:55:54.400Z,100262.98
2019-05-03T22:58:24.898Z,100253.55
2019-05-03T23:00:55.065Z,100256.75
2019-05-03T23:03:24.978Z,100247.33
2019-05-03T23:05:54.827Z,100247.94
2019-05-03T23:08:25.284Z,100250.30
2019-05-03T23:10:54.717Z,100250.33
2019-05-03T23:13:24.931Z,100241.39
2019-05-03T23:15:54.667Z,100239.05
2019-05-03T23:18:24.674Z,100245.16
2019-05-03T23:20:58.026Z,100243.81
2019-05-03T23:23:45.552Z,100241.14
2019-05-03T23:26:14.822Z,100237.50
2019-05-03T23:28:45.290Z,100238.98
2019-05-03T23:31:14.707Z,100236.52
2019-05-03T23:33:45.267Z,100233.59
2019-05-03T23:36:15.401Z,100231.41
2019-05-03T23:38:45.272Z,100230.53
2019-05-03T23:41:15.287Z,100234.22
2019-05-03T23:43:45.059Z,100231.88
2019-05-03T23:46:15.340Z,100218.66
2019-05-03T23:48:44.688Z,100219.63
2019-05-03T23:51:15.280Z,100225.91
2019-05-03T23:53:44.630Z,100232.03
2019-05-03T23:56:21.057Z,100229.80
2019-05-03T23:58:49.778Z,100221.10
